createdAt,value
2022-12-15T00:00:13.851Z,17.20
2022-12-15T00:03:34.490Z,17.21
2022-12-15T00:06:54.840Z,17.19
2022-12-15T00:10:14.754Z,17.15
2022-12-15T00:13:35.269Z,17.12
2022-12-15T00:16:55.507Z,17.09
2022-12-15T00:20:15.528Z,17.06
2022-12-15T00:23:35.399Z,17.03
2022-12-15T00:26:55.323Z,17.01
2022-12-15T00:30:15.199Z,16.97
2022-12-15T00:33:35.663Z,16.95
2022-12-15T00:36:55.730Z,16.92
2022-12-15T00:39:59.849Z,16.91
2022-12-15T00:43:01.390Z,16.89
2022-12-15T00:46:22.431Z,16.86
2022-12-15T00:49:45.150Z,16.84
2022-12-15T00:53:04.861Z,16.81
2022-12-15T00:56:28.704Z,16.81
2022-12-15T00:59:48.572Z,16.79
2022-12-15T01:03:08.449Z,16.76
2022-12-15T01:06:31.703Z,16.74
2022-12-15T01:09:51.517Z,16.73
2022-12-15T01:13:11.948Z,16.69
2022-12-15T01:16:33.946Z,16.68
2022-12-15T01:19:53.978Z,16.67
2022-12-15T01:22:56.037Z,16.66
2022-12-15T01:25:57.525Z,16.64
2022-12-15T01:28:59.583Z,16.64
2022-12-15T01:32:01.109Z,16.61
2022-12-15T01:35:04.200Z,16.61
2022-12-15T01:38:05.910Z,16.58
2022-12-15T01:41:12.393Z,16.58
2022-12-15T01:44:16.820Z,16.57
2022-12-15T01:47:23.561Z,16.55
2022-12-15T01:50:26.794Z,16.52
2022-12-15T01:53:32.563Z,16.51
2022-12-15T01:56:38.912Z,16.51
2022-12-15T01:59:46.084Z,16.49
2022-12-15T02:02:47.841Z,16.47
2022-12-15T02:05:49.448Z,16.47
2022-12-15T02:08:54.427Z,16.46
2022-12-15T02:12:24.638Z,16.45
2022-12-15T02:15:54.815Z,16.43
2022-12-15T02:19:33.478Z,16.42
2022-12-15T02:23:06.132Z,16.41
2022-12-15T02:26:34.968Z,16.39
2022-12-15T02:29:39.373Z,16.39
2022-12-15T02:33:13.082Z,16.39
2022-12-15T02:36:28.996Z,16.37
2022-12-15T02:39:30.747Z,16.36
2022-12-15T02:42:35.791Z,16.35
2022-12-15T02:46:14.421Z,16.36
2022-12-15T02:49:31.103Z,16.34
2022-12-15T02:52:47.776Z,16.30
2022-12-15T02:56:18.949Z,16.31
2022-12-15T02:59:37.818Z,16.30
2022-12-15T03:02:44.250Z,16.28
2022-12-15T03:05:47.743Z,16.28
2022-12-15T03:08:49.907Z,16.26
2022-12-15T03:11:51.432Z,16.24
2022-12-15T03:14:53.208Z,16.24
2022-12-15T03:17:54.691Z,16.23
2022-12-15T03:20:56.207Z,16.22
2022-12-15T03:23:57.664Z,16.22
2022-12-15T03:26:59.545Z,16.21
2022-12-15T03:30:01.105Z,16.20
2022-12-15T03:33:02.678Z,16.20
2022-12-15T03:36:04.916Z,16.20
2022-12-15T03:39:06.795Z,16.21
2022-12-15T03:42:08.496Z,16.20
2022-12-15T03:45:10.112Z,16.19
2022-12-15T03:48:11.590Z,16.19
2022-12-15T03:51:13.053Z,16.17
2022-12-15T03:54:14.636Z,16.17
2022-12-15T03:57:16.171Z,16.18
2022-12-15T04:00:19.900Z,16.17
2022-12-15T04:03:21.676Z,16.16
2022-12-15T04:06:23.836Z,16.15
2022-12-15T04:09:25.494Z,16.15
2022-12-15T04:12:26.963Z,16.14
2022-12-15T04:15:28.719Z,16.15
2022-12-15T04:18:30.217Z,16.16
2022-12-15T04:21:31.686Z,16.15
2022-12-15T04:24:51.964Z,16.16
2022-12-15T04:28:12.309Z,16.17
2022-12-15T04:31:36.800Z,16.18
2022-12-15T04:34:57.128Z,16.18
2022-12-15T04:38:16.926Z,16.18
2022-12-15T04:41:39.320Z,16.17
2022-12-15T04:44:59.865Z,16.18
2022-12-15T04:48:19.617Z,16.18
2022-12-15T04:51:39.707Z,16.17
2022-12-15T04:54:59.767Z,16.17
2022-12-15T04:58:24.240Z,16.18
2022-12-15T05:01:44.210Z,16.16
2022-12-15T05:05:04.462Z,16.17
2022-12-15T05:08:24.382Z,16.16
2022-12-15T05:11:44.555Z,16.16
2022-12-15T05:15:04.238Z,16.15
2022-12-15T05:18:24.009Z,16.13
2022-12-15T05:21:43.840Z,16.13
2022-12-15T05:25:03.844Z,16.11
2022-12-15T05:28:25.514Z,16.09
2022-12-15T05:31:45.937Z,16.08
2022-12-15T05:34:47.427Z,16.08
2022-12-15T05:37:48.953Z,16.07
2022-12-15T05:40:50.411Z,16.07
2022-12-15T05:43:51.983Z,16.08
2022-12-15T05:46:53.780Z,16.07
2022-12-15T05:49:55.379Z,16.09
2022-12-15T05:52:58.574Z,16.08
2022-12-15T05:56:15.947Z,16.07
2022-12-15T05:59:19.108Z,16.04
2022-12-15T06:02:20.723Z,16.03
2022-12-15T06:05:22.212Z,16.03
2022-12-15T06:08:24.002Z,16.03
2022-12-15T06:11:25.530Z,16.06
2022-12-15T06:14:26.948Z,16.08
2022-12-15T06:17:28.378Z,16.13
2022-12-15T06:20:29.866Z,16.16
2022-12-15T06:23:34.955Z,16.18
2022-12-15T06:26:38.971Z,16.22
2022-12-15T06:29:40.404Z,16.22
2022-12-15T06:32:41.836Z,16.25
2022-12-15T06:35:43.266Z,16.25
2022-12-15T06:38:45.483Z,16.27
2022-12-15T06:41:51.558Z,16.28
2022-12-15T06:44:53.008Z,16.27
2022-12-15T06:47:59.581Z,16.28
2022-12-15T06:51:05.187Z,16.28
2022-12-15T06:54:06.654Z,16.27
2022-12-15T06:57:08.392Z,16.26
2022-12-15T07:00:10.293Z,16.24
2022-12-15T07:03:17.732Z,16.23
2022-12-15T07:06:20.103Z,16.21
2022-12-15T07:09:21.543Z,16.20
2022-12-15T07:12:22.984Z,16.19
2022-12-15T07:15:25.027Z,16.17
2022-12-15T07:18:26.520Z,16.15
2022-12-15T07:21:28.017Z,16.14
2022-12-15T07:24:29.725Z,16.14
2022-12-15T07:27:31.250Z,16.14
2022-12-15T07:30:38.496Z,16.15
2022-12-15T07:33:40.547Z,16.15
2022-12-15T07:36:45.668Z,16.14
2022-12-15T07:39:50.153Z,16.13
2022-12-15T07:42:52.303Z,16.15
2022-12-15T07:45:53.965Z,16.14
2022-12-15T07:48:55.476Z,16.15
2022-12-15T07:51:58.436Z,16.15
2022-12-15T07:54:59.965Z,16.15
2022-12-15T07:58:01.459Z,16.14
2022-12-15T08:01:08.611Z,16.15
2022-12-15T08:04:10.385Z,16.14
2022-12-15T08:07:11.907Z,16.14
2022-12-15T08:10:13.463Z,16.14
2022-12-15T08:13:31.394Z,16.14
2022-12-15T08:16:37.316Z,16.14
2022-12-15T08:19:38.896Z,16.14
2022-12-15T08:22:40.774Z,16.13
2022-12-15T08:25:42.869Z,16.13
2022-12-15T08:28:45.728Z,16.13
2022-12-15T08:31:47.340Z,16.13
2022-12-15T08:34:49.632Z,16.14
2022-12-15T08:37:51.142Z,16.14
2022-12-15T08:40:52.644Z,16.15
2022-12-15T08:43:55.056Z,16.15
2022-12-15T08:46:56.560Z,16.15
2022-12-15T08:49:58.074Z,16.14
2022-12-15T08:53:29.065Z,16.14
2022-12-15T08:56:22.434Z,16.14
2022-12-15T08:59:24.040Z,16.15
2022-12-15T09:02:25.608Z,16.16
2022-12-15T09:05:27.625Z,16.18
2022-12-15T09:08:30.842Z,16.20
2022-12-15T09:11:32.493Z,16.22
2022-12-15T09:14:33.986Z,16.24
2022-12-15T09:17:35.503Z,16.26
2022-12-15T09:20:37.415Z,16.26
2022-12-15T09:23:39.744Z,16.27
2022-12-15T09:26:42.632Z,16.26
2022-12-15T09:29:44.100Z,16.27
2022-12-15T09:32:45.561Z,16.27
2022-12-15T09:35:51.979Z,16.29
2022-12-15T09:38:53.629Z,16.29
2022-12-15T09:41:59.067Z,16.30
2022-12-15T09:45:15.464Z,16.31
2022-12-15T09:48:21.318Z,16.30
2022-12-15T09:51:33.159Z,16.32
2022-12-15T09:54:34.756Z,16.29
2022-12-15T09:57:56.047Z,16.32
2022-12-15T10:01:09.966Z,16.32
2022-12-15T10:04:28.334Z,16.31
2022-12-15T10:07:37.070Z,16.31
2022-12-15T10:10:56.202Z,16.30
2022-12-15T10:14:21.552Z,16.29
2022-12-15T10:17:42.283Z,16.28
2022-12-15T10:20:43.794Z,16.25
2022-12-15T10:23:45.321Z,16.25
2022-12-15T10:26:59.556Z,16.24
2022-12-15T10:30:12.651Z,16.23
2022-12-15T10:33:19.909Z,16.21
2022-12-15T10:36:21.635Z,16.21
2022-12-15T10:39:24.597Z,16.21
2022-12-15T10:42:27.487Z,16.21
2022-12-15T10:45:35.482Z,16.21
2022-12-15T10:48:37.515Z,16.20
2022-12-15T10:52:03.114Z,16.22
2022-12-15T10:55:40.473Z,16.22
2022-12-15T10:58:51.785Z,16.21
2022-12-15T11:01:54.830Z,16.19
2022-12-15T11:05:15.468Z,16.18
2022-12-15T11:08:17.576Z,16.16
2022-12-15T11:11:53.457Z,16.16
2022-12-15T11:14:56.072Z,16.14
2022-12-15T11:18:22.342Z,16.14
2022-12-15T11:21:23.746Z,16.13
2022-12-15T11:24:47.065Z,16.13
2022-12-15T11:27:54.466Z,16.12
2022-12-15T11:31:22.387Z,16.12
2022-12-15T11:34:31.377Z,16.12
2022-12-15T11:37:44.522Z,16.11
2022-12-15T11:40:46.012Z,16.11
2022-12-15T11:44:13.432Z,16.11
2022-12-15T11:47:20.551Z,16.11
2022-12-15T11:50:25.007Z,16.08
2022-12-15T11:53:40.010Z,16.09
2022-12-15T11:56:52.752Z,16.08
2022-12-15T12:00:15.434Z,16.06
2022-12-15T12:04:25.001Z,16.07
2022-12-15T12:07:42.319Z,16.06
2022-12-15T12:11:18.556Z,16.07
2022-12-15T12:14:25.862Z,16.07
2022-12-15T12:17:41.355Z,16.09
2022-12-15T12:20:52.108Z,16.11
2022-12-15T12:23:56.462Z,16.09
2022-12-15T12:27:08.723Z,16.12
2022-12-15T12:30:17.520Z,16.12
2022-12-15T12:33:48.648Z,16.14
2022-12-15T12:36:51.740Z,16.16
2022-12-15T12:39:59.254Z,16.16
2022-12-15T12:43:02.205Z,16.16
2022-12-15T12:46:28.912Z,16.19
2022-12-15T12:49:37.062Z,16.17
2022-12-15T12:52:38.587Z,16.17
2022-12-15T12:55:42.306Z,16.18
2022-12-15T12:58:45.337Z,16.18
2022-12-15T13:01:50.344Z,16.17
2022-12-15T13:05:06.447Z,16.19
2022-12-15T13:08:08.680Z,16.19
2022-12-15T13:11:51.973Z,16.22
2022-12-15T13:14:54.619Z,16.25
2022-12-15T13:18:06.347Z,16.26
2022-12-15T13:21:35.353Z,16.27
2022-12-15T13:24:46.548Z,16.28
2022-12-15T13:27:56.178Z,16.28
2022-12-15T13:31:16.539Z,16.29
2022-12-15T13:34:23.427Z,16.29
2022-12-15T13:37:59.095Z,16.30
2022-12-15T13:41:00.594Z,16.29
2022-12-15T13:44:15.181Z,16.33
2022-12-15T13:47:23.528Z,16.32
2022-12-15T13:50:40.795Z,16.31
2022-12-15T13:53:51.745Z,16.30
2022-12-15T13:56:55.646Z,16.28
2022-12-15T14:00:05.094Z,16.27
2022-12-15T14:03:13.482Z,16.24
2022-12-15T14:06:15.746Z,16.25
2022-12-15T14:09:22.258Z,16.26
2022-12-15T14:12:23.788Z,16.27
2022-12-15T14:15:29.518Z,16.27
2022-12-15T14:18:36.554Z,16.30
2022-12-15T14:21:38.000Z,16.29
2022-12-15T14:24:45.751Z,16.32
2022-12-15T14:27:50.955Z,16.33
2022-12-15T14:30:53.112Z,16.33
2022-12-15T14:34:06.672Z,16.33
2022-12-15T14:37:15.740Z,16.32
2022-12-15T14:40:22.406Z,16.31
2022-12-15T14:43:32.210Z,16.31
2022-12-15T14:46:34.470Z,16.32
2022-12-15T14:49:42.539Z,16.35
2022-12-15T14:52:44.816Z,16.34
2022-12-15T14:55:46.434Z,16.35
2022-12-15T14:58:55.448Z,16.37
2022-12-15T15:02:12.817Z,16.38
2022-12-15T15:05:27.656Z,16.37
2022-12-15T15:08:50.842Z,16.39
2022-12-15T15:12:18.241Z,16.38
2022-12-15T15:15:21.325Z,16.37
2022-12-15T15:18:27.286Z,16.37
2022-12-15T15:21:34.015Z,16.37
2022-12-15T15:24:39.339Z,16.37
2022-12-15T15:27:40.844Z,16.39
2022-12-15T15:31:05.251Z,16.41
2022-12-15T15:34:06.915Z,16.42
2022-12-15T15:37:24.913Z,16.44
2022-12-15T15:40:26.454Z,16.40
2022-12-15T15:43:28.884Z,16.41
2022-12-15T15:46:34.316Z,16.41
2022-12-15T15:49:39.289Z,16.41
2022-12-15T15:52:41.688Z,16.44
2022-12-15T15:55:43.900Z,16.45
2022-12-15T15:58:45.568Z,16.47
2022-12-15T16:01:55.963Z,16.50
2022-12-15T16:04:57.623Z,16.53
2022-12-15T16:08:00.617Z,16.57
2022-12-15T16:11:02.477Z,16.59
2022-12-15T16:14:04.002Z,16.61
2022-12-15T16:17:09.476Z,16.63
2022-12-15T16:20:13.156Z,16.65
2022-12-15T16:23:17.046Z,16.64
2022-12-15T16:26:38.773Z,16.68
2022-12-15T16:29:41.167Z,16.66
2022-12-15T16:32:42.898Z,16.67
2022-12-15T16:35:45.270Z,16.67
2022-12-15T16:38:47.001Z,16.68
2022-12-15T16:41:48.554Z,16.51
2022-12-15T16:44:50.074Z,16.10
2022-12-15T16:47:52.194Z,15.65
2022-12-15T16:50:58.210Z,15.50
2022-12-15T16:53:59.909Z,15.50
2022-12-15T16:57:01.979Z,15.56
2022-12-15T17:00:15.003Z,15.68
2022-12-15T17:03:18.800Z,15.75
2022-12-15T17:06:20.485Z,15.82
2022-12-15T17:09:23.927Z,15.91
2022-12-15T17:12:25.446Z,16.02
2022-12-15T17:15:27.642Z,16.11
2022-12-15T17:18:29.364Z,16.20
2022-12-15T17:21:37.706Z,16.28
2022-12-15T17:24:44.149Z,16.35
2022-12-15T17:27:47.877Z,16.42
2022-12-15T17:30:50.663Z,16.48
2022-12-15T17:33:52.848Z,16.55
2022-12-15T17:36:55.124Z,16.59
2022-12-15T17:39:56.742Z,16.59
2022-12-15T17:42:58.252Z,16.59
2022-12-15T17:45:59.728Z,16.61
2022-12-15T17:49:01.225Z,16.62
2022-12-15T17:52:06.550Z,16.65
2022-12-15T17:55:33.324Z,16.66
2022-12-15T17:58:36.649Z,16.64
2022-12-15T18:01:38.174Z,16.64
2022-12-15T18:04:41.052Z,16.64
2022-12-15T18:07:42.775Z,16.65
2022-12-15T18:10:45.692Z,16.66
2022-12-15T18:13:47.206Z,16.67
2022-12-15T18:16:49.040Z,16.67
2022-12-15T18:19:50.588Z,16.69
2022-12-15T18:22:52.553Z,16.70
2022-12-15T18:25:56.181Z,16.70
2022-12-15T18:29:01.178Z,16.70
2022-12-15T18:32:02.685Z,16.64
2022-12-15T18:35:23.389Z,16.40
2022-12-15T18:38:27.129Z,16.33
2022-12-15T18:41:28.599Z,16.35
2022-12-15T18:44:31.841Z,16.39
2022-12-15T18:47:33.741Z,16.42
2022-12-15T18:50:35.340Z,16.46
2022-12-15T18:53:37.072Z,16.48
2022-12-15T18:56:38.552Z,16.50
2022-12-15T18:59:40.062Z,16.52
2022-12-15T19:02:42.202Z,16.55
2022-12-15T19:05:44.341Z,16.58
2022-12-15T19:08:46.231Z,16.62
2022-12-15T19:12:11.864Z,16.64
2022-12-15T19:15:18.338Z,16.68
2022-12-15T19:18:41.090Z,16.70
2022-12-15T19:21:54.587Z,16.70
2022-12-15T19:24:56.100Z,16.73
2022-12-15T19:27:59.786Z,16.72
2022-12-15T19:31:01.710Z,16.73
2022-12-15T19:34:03.216Z,16.73
2022-12-15T19:37:10.754Z,16.77
2022-12-15T19:40:30.401Z,16.76
2022-12-15T19:43:32.559Z,16.77
2022-12-15T19:46:34.350Z,16.78
2022-12-15T19:49:35.839Z,16.78
2022-12-15T19:52:38.193Z,16.78
2022-12-15T19:55:39.881Z,16.80
2022-12-15T19:58:41.754Z,16.81
2022-12-15T20:01:43.398Z,16.81
2022-12-15T20:04:45.266Z,16.82
2022-12-15T20:07:47.852Z,16.83
2022-12-15T20:10:50.672Z,16.82
2022-12-15T20:13:53.327Z,16.83
2022-12-15T20:16:54.866Z,16.80
2022-12-15T20:19:56.371Z,16.80
2022-12-15T20:23:01.482Z,16.81
2022-12-15T20:26:02.975Z,16.81
2022-12-15T20:29:07.398Z,16.82
2022-12-15T20:32:18.686Z,16.82
2022-12-15T20:35:21.722Z,16.81
2022-12-15T20:38:32.137Z,16.80
2022-12-15T20:41:34.020Z,16.79
2022-12-15T20:44:35.539Z,16.81
2022-12-15T20:47:40.838Z,16.81
2022-12-15T20:50:45.678Z,16.82
2022-12-15T20:53:47.735Z,16.81
2022-12-15T20:56:49.915Z,16.83
2022-12-15T20:59:51.394Z,16.83
2022-12-15T21:02:55.290Z,16.84
2022-12-15T21:05:58.692Z,16.83
2022-12-15T21:09:00.413Z,16.80
2022-12-15T21:12:05.869Z,16.80
2022-12-15T21:15:19.307Z,16.79
2022-12-15T21:18:57.621Z,16.77
2022-12-15T21:21:51.916Z,16.75
2022-12-15T21:24:55.797Z,16.74
2022-12-15T21:27:57.281Z,16.72
2022-12-15T21:30:58.825Z,16.72
2022-12-15T21:34:00.435Z,16.70
2022-12-15T21:37:03.327Z,16.69
2022-12-15T21:40:05.672Z,16.67
2022-12-15T21:43:07.500Z,16.65
2022-12-15T21:46:15.014Z,16.65
2022-12-15T21:49:18.461Z,16.62
2022-12-15T21:52:22.005Z,16.61
2022-12-15T21:55:26.860Z,16.58
2022-12-15T21:58:28.445Z,16.57
2022-12-15T22:01:31.649Z,16.55
2022-12-15T22:04:34.683Z,16.55
2022-12-15T22:07:36.129Z,16.52
2022-12-15T22:10:37.682Z,16.52
2022-12-15T22:13:39.221Z,16.51
2022-12-15T22:16:40.675Z,16.49
2022-12-15T22:19:42.110Z,16.47
2022-12-15T22:22:44.699Z,16.46
2022-12-15T22:25:49.831Z,16.44
2022-12-15T22:28:54.201Z,16.41
2022-12-15T22:31:56.286Z,16.40
2022-12-15T22:34:57.765Z,16.39
2022-12-15T22:37:59.532Z,16.37
2022-12-15T22:41:01.525Z,16.36
2022-12-15T22:44:03.062Z,16.32
2022-12-15T22:47:06.543Z,16.32
2022-12-15T22:50:13.935Z,16.29
2022-12-15T22:53:17.594Z,16.27
2022-12-15T22:56:24.708Z,16.27
2022-12-15T22:59:34.390Z,16.25
2022-12-15T23:02:38.986Z,16.23
2022-12-15T23:05:41.822Z,16.21
2022-12-15T23:08:43.304Z,16.19
2022-12-15T23:11:44.946Z,16.18
2022-12-15T23:15:04.848Z,16.16
2022-12-15T23:18:06.362Z,16.15
2022-12-15T23:21:09.365Z,16.14
2022-12-15T23:24:11.008Z,16.11
2022-12-15T23:27:12.651Z,16.10
2022-12-15T23:30:14.619Z,16.09
2022-12-15T23:33:16.347Z,16.06
2022-12-15T23:36:17.799Z,16.05
2022-12-15T23:39:19.284Z,16.04
2022-12-15T23:42:20.759Z,16.02
2022-12-15T23:45:22.572Z,16.03
2022-12-15T23:48:24.925Z,16.02
2022-12-15T23:51:26.428Z,16.02
2022-12-15T23:54:27.949Z,16.01
2022-12-15T23:57:29.507Z,16.00
